sensor_id;sensor_type;location;lat;lon;timestamp;pressure;altitude;pressure_sealevel;temperature;humidity
73151;BME280;61354;50.758;6.106;2023-07-24T00:01:08;98207.50;;;17.02;100.00
73151;BME280;61354;50.758;6.106;2023-07-24T00:03:34;98208.28;;;17.03;100.00
73151;BME280;61354;50.758;6.106;2023-07-24T00:05:59;98206.28;;;17.03;100.00
73151;BME280;61354;50.758;6.106;2023-07-24T00:08:25;98203.13;;;17.01;100.00
73151;BME280;61354;50.758;6.106;2023-07-24T00:10:51;98200.31;;;17.01;100.00
73151;BME280;61354;50.758;6.106;2023-07-24T00:13:17;98188.75;;;16.96;100.00
73151;BME280;61354;50.758;6.106;2023-07-24T00:15:43;98192.00;;;16.94;100.00
73151;BME280;61354;50.758;6.106;2023-07-24T00:18:08;98193.97;;;16.97;100.00
73151;BME280;61354;50.758;6.106;2023-07-24T00:20:34;98189.59;;;16.96;100.00
73151;BME280;61354;50.758;6.106;2023-07-24T00:22:59;98184.81;;;16.93;100.00
73151;BME280;61354;50.758;6.106;2023-07-24T00:25:25;98190.00;;;16.95;100.00
73151;BME280;61354;50.758;6.106;2023-07-24T00:27:50;98176.41;;;16.93;100.00
73151;BME280;61354;50.758;6.106;2023-07-24T00:30:16;98176.06;;;16.87;100.00
73151;BME280;61354;50.758;6.106;2023-07-24T00:32:41;98172.13;;;16.85;100.00
73151;BME280;61354;50.758;6.106;2023-07-24T00:35:07;98170.91;;;16.86;100.00
73151;BME280;61354;50.758;6.106;2023-07-24T00:37:33;98172.16;;;16.81;100.00
73151;BME280;61354;50.758;6.106;2023-07-24T00:39:59;98162.13;;;16.84;100.00
73151;BME280;61354;50.758;6.106;2023-07-24T00:42:24;98166.91;;;16.83;100.00
73151;BME280;61354;50.758;6.106;2023-07-24T00:44:50;98155.41;;;16.78;100.00
73151;BME280;61354;50.758;6.106;2023-07-24T00:47:16;98158.59;;;16.80;100.00
73151;BME280;61354;50.758;6.106;2023-07-24T00:49:42;98158.19;;;16.78;100.00
73151;BME280;61354;50.758;6.106;2023-07-24T00:52:08;98152.59;;;16.78;100.00
73151;BME280;61354;50.758;6.106;2023-07-24T00:54:34;98155.78;;;16.80;100.00
73151;BME280;61354;50.758;6.106;2023-07-24T00:57:00;98139.75;;;16.80;100.00
73151;BME280;61354;50.758;6.106;2023-07-24T00:59:26;98140.16;;;16.79;100.00
73151;BME280;61354;50.758;6.106;2023-07-24T01:01:52;98134.53;;;16.79;100.00
73151;BME280;61354;50.758;6.106;2023-07-24T01:04:18;98138.13;;;16.79;100.00
73151;BME280;61354;50.758;6.106;2023-07-24T01:06:44;98130.53;;;16.80;100.00
73151;BME280;61354;50.758;6.106;2023-07-24T01:09:10;98127.31;;;16.81;100.00
73151;BME280;61354;50.758;6.106;2023-07-24T01:11:43;98119.25;;;16.83;100.00
73151;BME280;61354;50.758;6.106;2023-07-24T01:16:41;98133.22;;;16.87;100.00
73151;BME280;61354;50.758;6.106;2023-07-24T01:19:29;98115.56;;;16.90;100.00
73151;BME280;61354;50.758;6.106;2023-07-24T01:27:46;98113.88;;;16.96;100.00
73151;BME280;61354;50.758;6.106;2023-07-24T01:30:14;98123.84;;;16.97;100.00
73151;BME280;61354;50.758;6.106;2023-07-24T01:32:40;98115.78;;;16.99;100.00
73151;BME280;61354;50.758;6.106;2023-07-24T01:35:06;98120.19;;;17.00;100.00
73151;BME280;61354;50.758;6.106;2023-07-24T01:37:34;98120.13;;;17.04;100.00
73151;BME280;61354;50.758;6.106;2023-07-24T01:39:59;98117.69;;;17.06;100.00
73151;BME280;61354;50.758;6.106;2023-07-24T01:42:25;98119.66;;;17.09;100.00
73151;BME280;61354;50.758;6.106;2023-07-24T01:44:53;98118.50;;;17.06;100.00
73151;BME280;61354;50.758;6.106;2023-07-24T01:47:19;98100.09;;;17.05;100.00
73151;BME280;61354;50.758;6.106;2023-07-24T01:49:44;98094.47;;;17.05;100.00
73151;BME280;61354;50.758;6.106;2023-07-24T01:52:10;98099.34;;;17.01;100.00
73151;BME280;61354;50.758;6.106;2023-07-24T01:54:36;98094.94;;;17.00;100.00
73151;BME280;61354;50.758;6.106;2023-07-24T01:57:01;98084.72;;;16.90;100.00
73151;BME280;61354;50.758;6.106;2023-07-24T01:59:27;98079.84;;;16.94;100.00
73151;BME280;61354;50.758;6.106;2023-07-24T02:01:52;98076.28;;;16.90;100.00
73151;BME280;61354;50.758;6.106;2023-07-24T02:04:18;98066.72;;;16.87;100.00
73151;BME280;61354;50.758;6.106;2023-07-24T02:06:50;98071.97;;;16.85;100.00
73151;BME280;61354;50.758;6.106;2023-07-24T02:09:19;98074.81;;;16.82;100.00
73151;BME280;61354;50.758;6.106;2023-07-24T02:11:45;98062.44;;;16.79;100.00
73151;BME280;61354;50.758;6.106;2023-07-24T02:14:12;98052.88;;;16.77;100.00
73151;BME280;61354;50.758;6.106;2023-07-24T02:16:38;98048.88;;;16.78;100.00
73151;BME280;61354;50.758;6.106;2023-07-24T02:19:03;98049.25;;;16.80;100.00
73151;BME280;61354;50.758;6.106;2023-07-24T02:21:29;98048.41;;;16.79;100.00
73151;BME280;61354;50.758;6.106;2023-07-24T02:23:54;98042.47;;;16.77;100.00
73151;BME280;61354;50.758;6.106;2023-07-24T02:26:20;98042.03;;;16.79;100.00
73151;BME280;61354;50.758;6.106;2023-07-24T02:28:45;98039.34;;;16.72;100.00
73151;BME280;61354;50.758;6.106;2023-07-24T02:31:11;98041.28;;;16.75;100.00
73151;BME280;61354;50.758;6.106;2023-07-24T02:33:37;98046.13;;;16.74;100.00
73151;BME280;61354;50.758;6.106;2023-07-24T02:36:03;98040.13;;;16.72;100.00
73151;BME280;61354;50.758;6.106;2023-07-24T02:38:28;98027.31;;;16.71;100.00
73151;BME280;61354;50.758;6.106;2023-07-24T02:40:54;98029.75;;;16.69;100.00
73151;BME280;61354;50.758;6.106;2023-07-24T02:43:20;98019.72;;;16.72;100.00
73151;BME280;61354;50.758;6.106;2023-07-24T02:45:45;98017.75;;;16.69;100.00
73151;BME280;61354;50.758;6.106;2023-07-24T02:48:11;98021.34;;;16.69;100.00
73151;BME280;61354;50.758;6.106;2023-07-24T02:50:36;98025.78;;;16.66;100.00
73151;BME280;61354;50.758;6.106;2023-07-24T02:53:02;98023.41;;;16.65;100.00
73151;BME280;61354;50.758;6.106;2023-07-24T02:55:28;98026.28;;;16.61;100.00
73151;BME280;61354;50.758;6.106;2023-07-24T02:57:53;98030.31;;;16.60;100.00
73151;BME280;61354;50.758;6.106;2023-07-24T03:00:19;98016.28;;;16.60;100.00
73151;BME280;61354;50.758;6.106;2023-07-24T03:02:44;98015.59;;;16.53;100.00
73151;BME280;61354;50.758;6.106;2023-07-24T03:05:10;98006.41;;;16.52;100.00
73151;BME280;61354;50.758;6.106;2023-07-24T03:07:35;98015.56;;;16.56;100.00
73151;BME280;61354;50.758;6.106;2023-07-24T03:10:02;98023.97;;;16.56;100.00
73151;BME280;61354;50.758;6.106;2023-07-24T03:12:28;98023.22;;;16.52;100.00
73151;BME280;61354;50.758;6.106;2023-07-24T03:14:53;98030.78;;;16.55;100.00
73151;BME280;61354;50.758;6.106;2023-07-24T03:17:19;98037.69;;;16.51;100.00
73151;BME280;61354;50.758;6.106;2023-07-24T03:19:44;98044.84;;;16.52;100.00
73151;BME280;61354;50.758;6.106;2023-07-24T03:22:10;98037.59;;;16.54;100.00
73151;BME280;61354;50.758;6.106;2023-07-24T03:24:35;98024.31;;;16.58;100.00
73151;BME280;61354;50.758;6.106;2023-07-24T03:27:01;98020.31;;;16.59;100.00
73151;BME280;61354;50.758;6.106;2023-07-24T03:29:27;98014.72;;;16.59;100.00
73151;BME280;61354;50.758;6.106;2023-07-24T03:31:53;98015.13;;;16.58;100.00
73151;BME280;61354;50.758;6.106;2023-07-24T03:34:18;98004.69;;;16.58;100.00
73151;BME280;61354;50.758;6.106;2023-07-24T03:36:44;98007.09;;;16.60;100.00
73151;BME280;61354;50.758;6.106;2023-07-24T03:39:10;98003.50;;;16.59;100.00
73151;BME280;61354;50.758;6.106;2023-07-24T03:41:37;98006.31;;;16.59;100.00
73151;BME280;61354;50.758;6.106;2023-07-24T03:44:03;97994.34;;;16.55;100.00
73151;BME280;61354;50.758;6.106;2023-07-24T03:46:28;98006.34;;;16.56;100.00
73151;BME280;61354;50.758;6.106;2023-07-24T03:48:54;98007.16;;;16.56;100.00
73151;BME280;61354;50.758;6.106;2023-07-24T03:51:20;98004.34;;;16.56;100.00
73151;BME280;61354;50.758;6.106;2023-07-24T03:53:46;97990.38;;;16.53;100.00
73151;BME280;61354;50.758;6.106;2023-07-24T03:56:11;97999.97;;;16.55;100.00
73151;BME280;61354;50.758;6.106;2023-07-24T03:58:37;97994.34;;;16.55;100.00
73151;BME280;61354;50.758;6.106;2023-07-24T04:01:05;98001.53;;;16.56;100.00
73151;BME280;61354;50.758;6.106;2023-07-24T04:03:30;97984.72;;;16.56;100.00
73151;BME280;61354;50.758;6.106;2023-07-24T04:05:56;97985.94;;;16.55;100.00
73151;BME280;61354;50.758;6.106;2023-07-24T04:08:21;97974.38;;;16.53;100.00
73151;BME280;61354;50.758;6.106;2023-07-24T04:10:47;97982.34;;;16.55;100.00
73151;BME280;61354;50.758;6.106;2023-07-24T04:13:12;97990.44;;;16.49;100.00
73151;BME280;61354;50.758;6.106;2023-07-24T04:15:38;97989.22;;;16.50;100.00
73151;BME280;61354;50.758;6.106;2023-07-24T04:18:05;97987.41;;;16.40;100.00
73151;BME280;61354;50.758;6.106;2023-07-24T04:20:30;97979.44;;;16.38;100.00
73151;BME280;61354;50.758;6.106;2023-07-24T04:22:56;97993.78;;;16.40;100.00
73151;BME280;61354;50.758;6.106;2023-07-24T04:25:22;97994.63;;;16.37;100.00
73151;BME280;61354;50.758;6.106;2023-07-24T04:27:47;98001.84;;;16.38;100.00
73151;BME280;61354;50.758;6.106;2023-07-24T04:30:13;98003.81;;;16.38;100.00
73151;BME280;61354;50.758;6.106;2023-07-24T04:32:38;98002.97;;;16.41;100.00
73151;BME280;61354;50.758;6.106;2023-07-24T04:35:04;98011.78;;;16.43;100.00
73151;BME280;61354;50.758;6.106;2023-07-24T04:37:30;98011.34;;;16.45;100.00
73151;BME280;61354;50.758;6.106;2023-07-24T04:39:56;98008.97;;;16.43;100.00
73151;BME280;61354;50.758;6.106;2023-07-24T04:42:22;98017.72;;;16.45;100.00
73151;BME280;61354;50.758;6.106;2023-07-24T04:44:47;98020.59;;;16.41;100.00
73151;BME280;61354;50.758;6.106;2023-07-24T04:47:13;98017.84;;;16.38;100.00
73151;BME280;61354;50.758;6.106;2023-07-24T04:49:38;98027.47;;;16.37;100.00
73151;BME280;61354;50.758;6.106;2023-07-24T04:52:04;98020.63;;;16.38;100.00
73151;BME280;61354;50.758;6.106;2023-07-24T04:54:29;98016.63;;;16.39;100.00
73151;BME280;61354;50.758;6.106;2023-07-24T04:56:55;98035.81;;;16.40;100.00
73151;BME280;61354;50.758;6.106;2023-07-24T04:59:21;98029.78;;;16.42;100.00
73151;BME280;61354;50.758;6.106;2023-07-24T05:01:46;98033.75;;;16.45;100.00
73151;BME280;61354;50.758;6.106;2023-07-24T05:04:12;98033.69;;;16.48;100.00
73151;BME280;61354;50.758;6.106;2023-07-24T05:06:37;98025.66;;;16.50;100.00
73151;BME280;61354;50.758;6.106;2023-07-24T05:09:04;98040.03;;;16.52;100.00
73151;BME280;61354;50.758;6.106;2023-07-24T05:11:29;98046.38;;;16.56;100.00
73151;BME280;61354;50.758;6.106;2023-07-24T05:13:55;98056.75;;;16.59;100.00
73151;BME280;61354;50.758;6.106;2023-07-24T05:16:20;98053.03;;;16.66;100.00
73151;BME280;61354;50.758;6.106;2023-07-24T05:18:46;98062.97;;;16.71;100.00
73151;BME280;61354;50.758;6.106;2023-07-24T05:21:12;98054.47;;;16.78;100.00
73151;BME280;61354;50.758;6.106;2023-07-24T05:23:37;98068.44;;;16.81;100.00
73151;BME280;61354;50.758;6.106;2023-07-24T05:26:03;98076.84;;;16.81;100.00
73151;BME280;61354;50.758;6.106;2023-07-24T05:28:31;98072.03;;;16.82;100.00
73151;BME280;61354;50.758;6.106;2023-07-24T05:31:04;98073.59;;;16.83;100.00
73151;BME280;61354;50.758;6.106;2023-07-24T05:33:30;98071.28;;;16.78;100.00
73151;BME280;61354;50.758;6.106;2023-07-24T05:36:03;98064.47;;;16.79;100.00
73151;BME280;61354;50.758;6.106;2023-07-24T05:38:29;98071.22;;;16.81;100.00
73151;BME280;61354;50.758;6.106;2023-07-24T05:40:59;98067.25;;;16.79;100.00
73151;BME280;61354;50.758;6.106;2023-07-24T05:43:25;98060.47;;;16.80;100.00
73151;BME280;61354;50.758;6.106;2023-07-24T05:45:51;98065.19;;;16.83;100.00
73151;BME280;61354;50.758;6.106;2023-07-24T05:48:17;98051.91;;;16.87;100.00
73151;BME280;61354;50.758;6.106;2023-07-24T05:50:42;98063.56;;;16.85;100.00
73151;BME280;61354;50.758;6.106;2023-07-24T05:53:08;98059.97;;;16.85;100.00
73151;BME280;61354;50.758;6.106;2023-07-24T05:55:34;98066.31;;;16.89;100.00
73151;BME280;61354;50.758;6.106;2023-07-24T05:57:59;98059.41;;;16.94;100.00
73151;BME280;61354;50.758;6.106;2023-07-24T06:00:25;98058.19;;;16.95;100.00
73151;BME280;61354;50.758;6.106;2023-07-24T06:02:50;98063.75;;;16.98;100.00
73151;BME280;61354;50.758;6.106;2023-07-24T06:05:16;98060.44;;;17.03;100.00
73151;BME280;61354;50.758;6.106;2023-07-24T06:07:41;98052.88;;;17.00;100.00
73151;BME280;61354;50.758;6.106;2023-07-24T06:10:07;98063.25;;;17.03;100.00
73151;BME280;61354;50.758;6.106;2023-07-24T06:12:33;98060.09;;;17.01;100.00
73151;BME280;61354;50.758;6.106;2023-07-24T06:14:58;98064.34;;;17.09;100.00
73151;BME280;61354;50.758;6.106;2023-07-24T06:17:24;98055.56;;;17.07;100.00
73151;BME280;61354;50.758;6.106;2023-07-24T06:19:49;98066.00;;;17.07;100.00
73151;BME280;61354;50.758;6.106;2023-07-24T06:22:15;98065.94;;;17.10;100.00
73151;BME280;61354;50.758;6.106;2023-07-24T06:24:41;98065.09;;;17.13;100.00
73151;BME280;61354;50.758;6.106;2023-07-24T06:27:06;98072.69;;;17.13;100.00
73151;BME280;61354;50.758;6.106;2023-07-24T06:29:32;98063.13;;;17.10;100.00
73151;BME280;61354;50.758;6.106;2023-07-24T06:31:58;98059.09;;;17.11;100.00
73151;BME280;61354;50.758;6.106;2023-07-24T06:34:23;98052.25;;;17.12;100.00
73151;BME280;61354;50.758;6.106;2023-07-24T06:36:49;98054.28;;;17.12;100.00
73151;BME280;61354;50.758;6.106;2023-07-24T06:39:15;98047.88;;;17.11;100.00
73151;BME280;61354;50.758;6.106;2023-07-24T06:41:41;98049.44;;;17.12;100.00
73151;BME280;61354;50.758;6.106;2023-07-24T06:44:06;98054.66;;;17.14;100.00
73151;BME280;61354;50.758;6.106;2023-07-24T06:46:32;98045.00;;;17.15;100.00
73151;BME280;61354;50.758;6.106;2023-07-24T06:48:58;98039.41;;;17.15;100.00
73151;BME280;61354;50.758;6.106;2023-07-24T06:51:23;98048.59;;;17.15;100.00
73151;BME280;61354;50.758;6.106;2023-07-24T06:53:49;98037.38;;;17.15;100.00
73151;BME280;61354;50.758;6.106;2023-07-24T06:56:14;98033.84;;;17.11;100.00
73151;BME280;61354;50.758;6.106;2023-07-24T06:58:40;98039.84;;;17.13;100.00
73151;BME280;61354;50.758;6.106;2023-07-24T07:01:06;98039.78;;;17.17;100.00
73151;BME280;61354;50.758;6.106;2023-07-24T07:03:32;98025.31;;;17.19;100.00
73151;BME280;61354;50.758;6.106;2023-07-24T07:06:00;98028.03;;;17.22;100.00
73151;BME280;61354;50.758;6.106;2023-07-24T07:08:26;98023.09;;;17.30;100.00
73151;BME280;61354;50.758;6.106;2023-07-24T07:10:56;98033.88;;;17.31;100.00
73151;BME280;61354;50.758;6.106;2023-07-24T07:13:22;98014.97;;;17.35;100.00
73151;BME280;61354;50.758;6.106;2023-07-24T07:15:47;98004.19;;;17.34;100.00
73151;BME280;61354;50.758;6.106;2023-07-24T07:18:13;98008.28;;;17.29;100.00
73151;BME280;61354;50.758;6.106;2023-07-24T07:20:38;98000.28;;;17.28;100.00
73151;BME280;61354;50.758;6.106;2023-07-24T07:23:04;98009.84;;;17.30;100.00
73151;BME280;61354;50.758;6.106;2023-07-24T07:25:29;98013.78;;;17.33;100.00
73151;BME280;61354;50.758;6.106;2023-07-24T07:27:55;98012.16;;;17.35;100.00
73151;BME280;61354;50.758;6.106;2023-07-24T07:30:20;98024.44;;;17.42;100.00
73151;BME280;61354;50.758;6.106;2023-07-24T07:32:46;98024.88;;;17.40;100.00
73151;BME280;61354;50.758;6.106;2023-07-24T07:35:13;98012.69;;;17.50;100.00
73151;BME280;61354;50.758;6.106;2023-07-24T07:37:39;98017.47;;;17.50;100.00
73151;BME280;61354;50.758;6.106;2023-07-24T07:40:05;98023.81;;;17.54;100.00
73151;BME280;61354;50.758;6.106;2023-07-24T07:42:31;98027.78;;;17.56;100.00
73151;BME280;61354;50.758;6.106;2023-07-24T07:44:57;98017.97;;;17.64;100.00
73151;BME280;61354;50.758;6.106;2023-07-24T07:47:22;98016.25;;;17.71;100.00
73151;BME280;61354;50.758;6.106;2023-07-24T07:49:48;98016.97;;;17.75;100.00
73151;BME280;61354;50.758;6.106;2023-07-24T07:52:14;98022.75;;;17.68;100.00
73151;BME280;61354;50.758;6.106;2023-07-24T07:54:46;98017.47;;;17.70;100.00
73151;BME280;61354;50.758;6.106;2023-07-24T07:57:11;98014.59;;;17.73;100.00
73151;BME280;61354;50.758;6.106;2023-07-24T07:59:37;98018.41;;;17.83;100.00
73151;BME280;61354;50.758;6.106;2023-07-24T08:02:02;98008.53;;;17.95;100.00
73151;BME280;61354;50.758;6.106;2023-07-24T08:04:28;98009.34;;;18.11;100.00
73151;BME280;61354;50.758;6.106;2023-07-24T08:06:53;98007.03;;;18.26;100.00
73151;BME280;61354;50.758;6.106;2023-07-24T08:09:19;97992.38;;;18.35;100.00
73151;BME280;61354;50.758;6.106;2023-07-24T08:11:47;97999.56;;;18.36;100.00
73151;BME280;61354;50.758;6.106;2023-07-24T08:14:13;97982.88;;;18.29;100.00
73151;BME280;61354;50.758;6.106;2023-07-24T08:16:38;97986.47;;;18.13;98.18
73151;BME280;61354;50.758;6.106;2023-07-24T08:19:04;97985.06;;;18.21;100.00
73151;BME280;61354;50.758;6.106;2023-07-24T08:21:29;97982.19;;;18.25;100.00
73151;BME280;61354;50.758;6.106;2023-07-24T08:23:55;97978.31;;;18.35;99.68
73151;BME280;61354;50.758;6.106;2023-07-24T08:26:22;97982.69;;;18.36;99.00
73151;BME280;61354;50.758;6.106;2023-07-24T08:28:50;97993.53;;;18.37;97.57
73151;BME280;61354;50.758;6.106;2023-07-24T08:31:15;97996.59;;;18.43;97.68
73151;BME280;61354;50.758;6.106;2023-07-24T08:33:41;97997.28;;;18.47;98.10
73151;BME280;61354;50.758;6.106;2023-07-24T08:36:07;97990.00;;;18.50;97.45
73151;BME280;61354;50.758;6.106;2023-07-24T08:38:34;97993.53;;;18.70;100.00
73151;BME280;61354;50.758;6.106;2023-07-24T08:41:07;97993.50;;;18.86;99.56
73151;BME280;61354;50.758;6.106;2023-07-24T08:43:35;97996.84;;;18.98;98.09
73151;BME280;61354;50.758;6.106;2023-07-24T08:46:02;97999.75;;;18.94;95.60
73151;BME280;61354;50.758;6.106;2023-07-24T08:48:38;97995.97;;;18.84;93.60
73151;BME280;61354;50.758;6.106;2023-07-24T08:51:05;97991.66;;;18.96;94.61
73151;BME280;61354;50.758;6.106;2023-07-24T08:53:36;97993.06;;;19.04;95.46
73151;BME280;61354;50.758;6.106;2023-07-24T08:56:03;97982.59;;;19.05;95.95
73151;BME280;61354;50.758;6.106;2023-07-24T08:58:29;97973.00;;;19.02;97.15
73151;BME280;61354;50.758;6.106;2023-07-24T09:00:56;97972.50;;;18.91;95.10
73151;BME280;61354;50.758;6.106;2023-07-24T09:03:22;97971.81;;;18.87;95.67
73151;BME280;61354;50.758;6.106;2023-07-24T09:05:48;97969.59;;;18.78;94.95
73151;BME280;61354;50.758;6.106;2023-07-24T09:08:14;97966.91;;;18.75;96.03
73151;BME280;61354;50.758;6.106;2023-07-24T09:10:40;97966.56;;;18.73;96.36
73151;BME280;61354;50.758;6.106;2023-07-24T09:13:06;97964.44;;;18.77;96.15
73151;BME280;61354;50.758;6.106;2023-07-24T09:15:44;97956.88;;;18.74;96.04
73151;BME280;61354;50.758;6.106;2023-07-24T09:18:10;97957.06;;;18.83;97.47
73151;BME280;61354;50.758;6.106;2023-07-24T09:20:41;97946.22;;;18.81;96.20
73151;BME280;61354;50.758;6.106;2023-07-24T09:23:07;97949.84;;;18.82;96.56
73151;BME280;61354;50.758;6.106;2023-07-24T09:25:35;97943.19;;;18.76;95.97
73151;BME280;61354;50.758;6.106;2023-07-24T09:28:09;97941.41;;;18.82;97.13
73151;BME280;61354;50.758;6.106;2023-07-24T09:30:35;97932.63;;;18.80;96.75
73151;BME280;61354;50.758;6.106;2023-07-24T09:33:01;97940.97;;;18.83;96.67
73151;BME280;61354;50.758;6.106;2023-07-24T09:35:26;97924.09;;;18.83;99.44
73151;BME280;61354;50.758;6.106;2023-07-24T09:38:06;97922.94;;;18.81;100.00
73151;BME280;61354;50.758;6.106;2023-07-24T09:43:17;97909.94;;;18.87;100.00
73151;BME280;61354;50.758;6.106;2023-07-24T09:45:44;97900.81;;;19.12;100.00
73151;BME280;61354;50.758;6.106;2023-07-24T09:48:14;97890.34;;;19.25;100.00
73151;BME280;61354;50.758;6.106;2023-07-24T09:50:45;97874.94;;;19.30;100.00
73151;BME280;61354;50.758;6.106;2023-07-24T09:53:33;97869.09;;;19.37;100.00
73151;BME280;61354;50.758;6.106;2023-07-24T09:56:03;97872.03;;;19.46;100.00
73151;BME280;61354;50.758;6.106;2023-07-24T09:58:32;97876.13;;;19.58;100.00
73151;BME280;61354;50.758;6.106;2023-07-24T10:00:58;97868.44;;;19.58;98.84
73151;BME280;61354;50.758;6.106;2023-07-24T10:03:25;97876.25;;;19.67;100.00
73151;BME280;61354;50.758;6.106;2023-07-24T10:05:52;97876.16;;;19.71;98.04
73151;BME280;61354;50.758;6.106;2023-07-24T10:08:19;97865.56;;;19.75;97.90
73151;BME280;61354;50.758;6.106;2023-07-24T10:10:45;97861.59;;;19.72;98.85
73151;BME280;61354;50.758;6.106;2023-07-24T10:13:12;97870.72;;;19.64;94.85
73151;BME280;61354;50.758;6.106;2023-07-24T10:15:44;97866.88;;;19.57;96.04
73151;BME280;61354;50.758;6.106;2023-07-24T10:18:11;97859.88;;;19.49;95.52
73151;BME280;61354;50.758;6.106;2023-07-24T10:20:39;97858.06;;;19.43;95.71
73151;BME280;61354;50.758;6.106;2023-07-24T10:23:05;97859.53;;;19.34;97.32
73151;BME280;61354;50.758;6.106;2023-07-24T10:25:32;97847.13;;;19.32;99.61
73151;BME280;61354;50.758;6.106;2023-07-24T10:28:06;97845.53;;;19.18;99.29
73151;BME280;61354;50.758;6.106;2023-07-24T10:30:37;97847.97;;;19.03;100.00
73151;BME280;61354;50.758;6.106;2023-07-24T10:33:17;97862.91;;;18.87;100.00
73151;BME280;61354;50.758;6.106;2023-07-24T10:35:49;97890.53;;;18.60;100.00
73151;BME280;61354;50.758;6.106;2023-07-24T10:38:16;97873.38;;;18.25;100.00
73151;BME280;61354;50.758;6.106;2023-07-24T10:40:44;97871.91;;;18.04;100.00
73151;BME280;61354;50.758;6.106;2023-07-24T10:43:14;97895.25;;;18.01;100.00
73151;BME280;61354;50.758;6.106;2023-07-24T10:45:46;97909.63;;;18.03;100.00
73151;BME280;61354;50.758;6.106;2023-07-24T10:48:13;97913.13;;;17.91;100.00
73151;BME280;61354;50.758;6.106;2023-07-24T10:50:41;97910.16;;;17.98;100.00
73151;BME280;61354;50.758;6.106;2023-07-24T10:53:08;97903.31;;;18.16;100.00
73151;BME280;61354;50.758;6.106;2023-07-24T10:55:34;97904.91;;;18.17;100.00
73151;BME280;61354;50.758;6.106;2023-07-24T10:58:00;97900.66;;;18.41;100.00
73151;BME280;61354;50.758;6.106;2023-07-24T11:00:26;97906.09;;;18.48;100.00
73151;BME280;61354;50.758;6.106;2023-07-24T11:02:53;97905.88;;;18.10;100.00
73151;BME280;61354;50.758;6.106;2023-07-24T11:05:23;97915.69;;;18.18;100.00
73151;BME280;61354;50.758;6.106;2023-07-24T11:07:49;97917.97;;;18.23;100.00
73151;BME280;61354;50.758;6.106;2023-07-24T11:10:24;97922.28;;;18.11;100.00
73151;BME280;61354;50.758;6.106;2023-07-24T11:12:49;97931.03;;;17.81;100.00
73151;BME280;61354;50.758;6.106;2023-07-24T11:15:25;97937.63;;;17.71;100.00
73151;BME280;61354;50.758;6.106;2023-07-24T11:17:52;97964.06;;;17.53;100.00
73151;BME280;61354;50.758;6.106;2023-07-24T11:20:17;97970.19;;;17.48;100.00
73151;BME280;61354;50.758;6.106;2023-07-24T11:22:44;97956.63;;;17.27;100.00
73151;BME280;61354;50.758;6.106;2023-07-24T11:25:10;97952.44;;;17.15;100.00
73151;BME280;61354;50.758;6.106;2023-07-24T11:27:40;97931.88;;;17.22;100.00
73151;BME280;61354;50.758;6.106;2023-07-24T11:30:08;97933.38;;;17.46;100.00
73151;BME280;61354;50.758;6.106;2023-07-24T11:32:34;97935.94;;;17.77;100.00
73151;BME280;61354;50.758;6.106;2023-07-24T11:34:59;97931.22;;;17.90;100.00
73151;BME280;61354;50.758;6.106;2023-07-24T11:37:26;97923.31;;;18.01;100.00
73151;BME280;61354;50.758;6.106;2023-07-24T11:40:10;97911.94;;;18.08;100.00
73151;BME280;61354;50.758;6.106;2023-07-24T11:42:43;97901.91;;;18.24;100.00
73151;BME280;61354;50.758;6.106;2023-07-24T11:45:09;97902.25;;;18.42;100.00
73151;BME280;61354;50.758;6.106;2023-07-24T11:47:48;97889.38;;;18.74;100.00
73151;BME280;61354;50.758;6.106;2023-07-24T11:50:15;97892.47;;;18.79;100.00
73151;BME280;61354;50.758;6.106;2023-07-24T11:52:51;97886.03;;;19.08;100.00
73151;BME280;61354;50.758;6.106;2023-07-24T11:55:31;97884.66;;;19.00;100.00
73151;BME280;61354;50.758;6.106;2023-07-24T11:58:01;97886.66;;;18.99;100.00
73151;BME280;61354;50.758;6.106;2023-07-24T12:00:27;97870.19;;;19.14;100.00
73151;BME280;61354;50.758;6.106;2023-07-24T12:02:59;97876.88;;;19.46;100.00
73151;BME280;61354;50.758;6.106;2023-07-24T12:05:25;97883.81;;;19.28;100.00
73151;BME280;61354;50.758;6.106;2023-07-24T12:07:54;97884.34;;;19.10;100.00
73151;BME280;61354;50.758;6.106;2023-07-24T12:10:27;97861.75;;;18.85;100.00
73151;BME280;61354;50.758;6.106;2023-07-24T12:12:53;97875.59;;;19.21;100.00
73151;BME280;61354;50.758;6.106;2023-07-24T12:15:19;97866.72;;;19.35;100.00
73151;BME280;61354;50.758;6.106;2023-07-24T12:17:45;97867.19;;;19.47;100.00
73151;BME280;61354;50.758;6.106;2023-07-24T12:20:10;97878.16;;;19.57;100.00
73151;BME280;61354;50.758;6.106;2023-07-24T12:22:38;97871.41;;;19.93;100.00
73151;BME280;61354;50.758;6.106;2023-07-24T12:25:05;97861.59;;;19.98;100.00
73151;BME280;61354;50.758;6.106;2023-07-24T12:27:31;97865.31;;;20.07;100.00
73151;BME280;61354;50.758;6.106;2023-07-24T12:29:58;97860.75;;;20.23;100.00
73151;BME280;61354;50.758;6.106;2023-07-24T12:32:23;97862.09;;;20.31;100.00
73151;BME280;61354;50.758;6.106;2023-07-24T12:34:53;97863.50;;;20.14;100.00
73151;BME280;61354;50.758;6.106;2023-07-24T12:37:19;97853.81;;;19.89;100.00
73151;BME280;61354;50.758;6.106;2023-07-24T12:39:46;97865.22;;;19.73;100.00
73151;BME280;61354;50.758;6.106;2023-07-24T12:42:12;97876.22;;;19.42;100.00
73151;BME280;61354;50.758;6.106;2023-07-24T12:44:38;97886.97;;;19.18;100.00
73151;BME280;61354;50.758;6.106;2023-07-24T12:47:04;97895.66;;;18.94;100.00
73151;BME280;61354;50.758;6.106;2023-07-24T12:49:30;97889.56;;;18.83;100.00
73151;BME280;61354;50.758;6.106;2023-07-24T12:51:56;97880.06;;;18.60;100.00
73151;BME280;61354;50.758;6.106;2023-07-24T12:54:22;97886.44;;;18.48;100.00
73151;BME280;61354;50.758;6.106;2023-07-24T12:56:51;97896.34;;;18.53;100.00
73151;BME280;61354;50.758;6.106;2023-07-24T12:59:18;97902.22;;;18.58;100.00